sensor_id;sensor_type;location;lat;lon;timestamp;P1;durP1;ratioP1;P2;durP2;ratioP2
66542;SDS011;53395;37.360;-122.046;2023-07-13T00:02:26;6.88;;;2.42;;
66542;SDS011;53395;37.360;-122.046;2023-07-13T00:05:11;8.82;;;2.47;;
66542;SDS011;53395;37.360;-122.046;2023-07-13T00:07:55;5.45;;;1.98;;
66542;SDS011;53395;37.360;-122.046;2023-07-13T00:10:40;5.95;;;2.15;;
66542;SDS011;53395;37.360;-122.046;2023-07-13T00:13:25;6.38;;;2.08;;
66542;SDS011;53395;37.360;-122.046;2023-07-13T00:16:10;6.97;;;2.33;;
66542;SDS011;53395;37.360;-122.046;2023-07-13T00:18:55;7.07;;;2.35;;
66542;SDS011;53395;37.360;-122.046;2023-07-13T00:21:39;7.30;;;2.20;;
66542;SDS011;53395;37.360;-122.046;2023-07-13T00:27:08;6.63;;;1.88;;
66542;SDS011;53395;37.360;-122.046;2023-07-13T00:32:37;7.47;;;2.47;;
66542;SDS011;53395;37.360;-122.046;2023-07-13T00:35:22;6.57;;;2.50;;
66542;SDS011;53395;37.360;-122.046;2023-07-13T00:40:51;7.25;;;2.47;;
66542;SDS011;53395;37.360;-122.046;2023-07-13T00:43:36;7.72;;;2.47;;
66542;SDS011;53395;37.360;-122.046;2023-07-13T00:46:27;7.88;;;2.50;;
66542;SDS011;53395;37.360;-122.046;2023-07-13T00:49:13;7.72;;;2.70;;
66542;SDS011;53395;37.360;-122.046;2023-07-13T00:52:00;6.55;;;2.55;;
66542;SDS011;53395;37.360;-122.046;2023-07-13T00:54:46;9.40;;;2.50;;
66542;SDS011;53395;37.360;-122.046;2023-07-13T00:57:30;7.57;;;2.53;;
66542;SDS011;53395;37.360;-122.046;2023-07-13T01:00:16;8.82;;;2.28;;
66542;SDS011;53395;37.360;-122.046;2023-07-13T01:03:01;8.10;;;2.70;;
66542;SDS011;53395;37.360;-122.046;2023-07-13T01:05:48;9.70;;;2.63;;
66542;SDS011;53395;37.360;-122.046;2023-07-13T01:08:33;10.27;;;2.92;;
66542;SDS011;53395;37.360;-122.046;2023-07-13T01:11:20;8.93;;;2.40;;
66542;SDS011;53395;37.360;-122.046;2023-07-13T01:14:05;6.97;;;2.33;;
66542;SDS011;53395;37.360;-122.046;2023-07-13T01:16:50;8.75;;;2.22;;
66542;SDS011;53395;37.360;-122.046;2023-07-13T01:22:23;6.93;;;2.47;;
66542;SDS011;53395;37.360;-122.046;2023-07-13T01:25:10;7.72;;;2.30;;
66542;SDS011;53395;37.360;-122.046;2023-07-13T01:27:55;11.48;;;2.83;;
66542;SDS011;53395;37.360;-122.046;2023-07-13T01:30:39;5.80;;;2.35;;
66542;SDS011;53395;37.360;-122.046;2023-07-13T01:36:08;7.93;;;2.10;;
66542;SDS011;53395;37.360;-122.046;2023-07-13T01:41:37;8.75;;;2.97;;
66542;SDS011;53395;37.360;-122.046;2023-07-13T01:44:21;9.40;;;2.67;;
66542;SDS011;53395;37.360;-122.046;2023-07-13T01:47:06;8.52;;;2.45;;
66542;SDS011;53395;37.360;-122.046;2023-07-13T01:49:50;10.15;;;2.92;;
66542;SDS011;53395;37.360;-122.046;2023-07-13T01:52:35;10.45;;;2.97;;
66542;SDS011;53395;37.360;-122.046;2023-07-13T01:55:20;10.52;;;2.78;;
66542;SDS011;53395;37.360;-122.046;2023-07-13T01:58:06;9.25;;;2.70;;
66542;SDS011;53395;37.360;-122.046;2023-07-13T02:00:51;8.25;;;2.53;;
66542;SDS011;53395;37.360;-122.046;2023-07-13T02:03:35;8.68;;;2.40;;
66542;SDS011;53395;37.360;-122.046;2023-07-13T02:06:20;10.43;;;2.70;;
66542;SDS011;53395;37.360;-122.046;2023-07-13T02:09:04;8.70;;;2.80;;
66542;SDS011;53395;37.360;-122.046;2023-07-13T02:11:49;7.20;;;2.15;;
66542;SDS011;53395;37.360;-122.046;2023-07-13T02:14:34;10.07;;;2.22;;
66542;SDS011;53395;37.360;-122.046;2023-07-13T02:17:19;7.65;;;2.60;;
66542;SDS011;53395;37.360;-122.046;2023-07-13T02:20:04;6.97;;;2.22;;
66542;SDS011;53395;37.360;-122.046;2023-07-13T02:22:49;8.77;;;2.17;;
66542;SDS011;53395;37.360;-122.046;2023-07-13T02:25:33;8.60;;;2.45;;
66542;SDS011;53395;37.360;-122.046;2023-07-13T02:28:18;9.65;;;1.92;;
66542;SDS011;53395;37.360;-122.046;2023-07-13T02:31:06;11.70;;;2.78;;
66542;SDS011;53395;37.360;-122.046;2023-07-13T02:33:51;7.40;;;2.58;;
66542;SDS011;53395;37.360;-122.046;2023-07-13T02:36:35;9.85;;;2.65;;
66542;SDS011;53395;37.360;-122.046;2023-07-13T02:39:20;9.77;;;2.90;;
66542;SDS011;53395;37.360;-122.046;2023-07-13T02:42:04;8.82;;;2.78;;
66542;SDS011;53395;37.360;-122.046;2023-07-13T02:44:49;7.55;;;2.55;;
66542;SDS011;53395;37.360;-122.046;2023-07-13T02:47:35;6.32;;;2.50;;
66542;SDS011;53395;37.360;-122.046;2023-07-13T02:50:19;9.15;;;2.90;;
66542;SDS011;53395;37.360;-122.046;2023-07-13T02:53:04;12.05;;;2.38;;
66542;SDS011;53395;37.360;-122.046;2023-07-13T02:55:48;9.43;;;2.35;;
66542;SDS011;53395;37.360;-122.046;2023-07-13T02:58:33;10.38;;;2.88;;
66542;SDS011;53395;37.360;-122.046;2023-07-13T03:01:20;10.75;;;2.90;;
66542;SDS011;53395;37.360;-122.046;2023-07-13T03:04:05;9.00;;;2.67;;
66542;SDS011;53395;37.360;-122.046;2023-07-13T03:06:50;10.73;;;2.67;;
66542;SDS011;53395;37.360;-122.046;2023-07-13T03:09:35;7.45;;;2.40;;
66542;SDS011;53395;37.360;-122.046;2023-07-13T03:12:20;10.35;;;2.78;;
66542;SDS011;53395;37.360;-122.046;2023-07-13T03:15:04;9.20;;;3.22;;
66542;SDS011;53395;37.360;-122.046;2023-07-13T03:17:49;9.95;;;2.63;;
66542;SDS011;53395;37.360;-122.046;2023-07-13T03:20:34;8.60;;;2.60;;
66542;SDS011;53395;37.360;-122.046;2023-07-13T03:23:19;7.60;;;2.45;;
66542;SDS011;53395;37.360;-122.046;2023-07-13T03:26:07;10.80;;;2.72;;
66542;SDS011;53395;37.360;-122.046;2023-07-13T03:28:52;9.15;;;2.88;;
66542;SDS011;53395;37.360;-122.046;2023-07-13T03:31:37;12.60;;;3.08;;
66542;SDS011;53395;37.360;-122.046;2023-07-13T03:34:21;11.30;;;2.88;;
66542;SDS011;53395;37.360;-122.046;2023-07-13T03:37:06;12.38;;;3.13;;
66542;SDS011;53395;37.360;-122.046;2023-07-13T03:39:50;10.65;;;2.75;;
66542;SDS011;53395;37.360;-122.046;2023-07-13T03:42:35;9.60;;;2.92;;
66542;SDS011;53395;37.360;-122.046;2023-07-13T03:45:19;10.40;;;3.22;;
66542;SDS011;53395;37.360;-122.046;2023-07-13T03:48:04;11.63;;;3.75;;
66542;SDS011;53395;37.360;-122.046;2023-07-13T03:50:49;8.65;;;2.95;;
66542;SDS011;53395;37.360;-122.046;2023-07-13T03:53:34;9.35;;;3.15;;
66542;SDS011;53395;37.360;-122.046;2023-07-13T03:56:19;11.63;;;3.20;;
66542;SDS011;53395;37.360;-122.046;2023-07-13T03:59:03;12.45;;;3.30;;
66542;SDS011;53395;37.360;-122.046;2023-07-13T04:01:48;14.15;;;2.97;;
66542;SDS011;53395;37.360;-122.046;2023-07-13T04:04:32;9.98;;;2.60;;
66542;SDS011;53395;37.360;-122.046;2023-07-13T04:07:17;11.27;;;3.22;;
66542;SDS011;53395;37.360;-122.046;2023-07-13T04:12:47;11.30;;;3.00;;
66542;SDS011;53395;37.360;-122.046;2023-07-13T04:15:31;11.60;;;2.55;;
66542;SDS011;53395;37.360;-122.046;2023-07-13T04:18:16;10.40;;;2.67;;
66542;SDS011;53395;37.360;-122.046;2023-07-13T04:21:01;9.75;;;2.85;;
66542;SDS011;53395;37.360;-122.046;2023-07-13T04:23:46;9.27;;;2.70;;
66542;SDS011;53395;37.360;-122.046;2023-07-13T04:26:30;7.85;;;2.78;;
66542;SDS011;53395;37.360;-122.046;2023-07-13T04:29:15;9.85;;;2.85;;
66542;SDS011;53395;37.360;-122.046;2023-07-13T04:31:59;10.65;;;3.03;;
66542;SDS011;53395;37.360;-122.046;2023-07-13T04:34:44;8.45;;;2.75;;
66542;SDS011;53395;37.360;-122.046;2023-07-13T04:37:28;11.98;;;2.88;;
66542;SDS011;53395;37.360;-122.046;2023-07-13T04:40:13;7.25;;;2.38;;
66542;SDS011;53395;37.360;-122.046;2023-07-13T04:42:57;8.57;;;1.98;;
66542;SDS011;53395;37.360;-122.046;2023-07-13T04:45:41;10.88;;;2.90;;
66542;SDS011;53395;37.360;-122.046;2023-07-13T04:48:26;5.93;;;2.38;;
66542;SDS011;53395;37.360;-122.046;2023-07-13T04:51:10;11.60;;;3.28;;
66542;SDS011;53395;37.360;-122.046;2023-07-13T04:53:55;9.15;;;2.53;;
66542;SDS011;53395;37.360;-122.046;2023-07-13T04:56:39;7.38;;;2.17;;
66542;SDS011;53395;37.360;-122.046;2023-07-13T04:59:24;10.60;;;2.75;;
66542;SDS011;53395;37.360;-122.046;2023-07-13T05:02:08;9.02;;;2.70;;
66542;SDS011;53395;37.360;-122.046;2023-07-13T05:04:53;8.48;;;2.60;;
66542;SDS011;53395;37.360;-122.046;2023-07-13T05:07:37;6.75;;;2.00;;
66542;SDS011;53395;37.360;-122.046;2023-07-13T05:10:22;11.10;;;2.65;;
66542;SDS011;53395;37.360;-122.046;2023-07-13T05:13:07;8.32;;;2.15;;
66542;SDS011;53395;37.360;-122.046;2023-07-13T05:15:58;6.68;;;2.20;;
66542;SDS011;53395;37.360;-122.046;2023-07-13T05:18:43;10.57;;;2.40;;
66542;SDS011;53395;37.360;-122.046;2023-07-13T05:21:27;8.27;;;2.60;;
66542;SDS011;53395;37.360;-122.046;2023-07-13T05:24:12;8.95;;;2.50;;
66542;SDS011;53395;37.360;-122.046;2023-07-13T05:26:56;9.15;;;2.47;;
66542;SDS011;53395;37.360;-122.046;2023-07-13T05:29:41;10.32;;;2.63;;
66542;SDS011;53395;37.360;-122.046;2023-07-13T05:32:25;6.13;;;2.10;;
66542;SDS011;53395;37.360;-122.046;2023-07-13T05:35:10;6.38;;;2.33;;
66542;SDS011;53395;37.360;-122.046;2023-07-13T05:37:54;7.60;;;2.53;;
66542;SDS011;53395;37.360;-122.046;2023-07-13T05:40:39;10.70;;;2.60;;
66542;SDS011;53395;37.360;-122.046;2023-07-13T05:43:23;8.48;;;2.90;;
66542;SDS011;53395;37.360;-122.046;2023-07-13T05:46:08;7.65;;;2.35;;
66542;SDS011;53395;37.360;-122.046;2023-07-13T05:48:52;7.97;;;2.20;;
66542;SDS011;53395;37.360;-122.046;2023-07-13T05:51:37;8.40;;;2.67;;
66542;SDS011;53395;37.360;-122.046;2023-07-13T05:54:22;6.90;;;2.30;;
66542;SDS011;53395;37.360;-122.046;2023-07-13T05:57:06;6.30;;;2.17;;
66542;SDS011;53395;37.360;-122.046;2023-07-13T05:59:51;9.48;;;2.47;;
66542;SDS011;53395;37.360;-122.046;2023-07-13T06:02:35;9.68;;;2.40;;
66542;SDS011;53395;37.360;-122.046;2023-07-13T06:05:20;4.80;;;1.92;;
66542;SDS011;53395;37.360;-122.046;2023-07-13T06:08:05;9.73;;;1.85;;
66542;SDS011;53395;37.360;-122.046;2023-07-13T06:13:33;8.73;;;2.60;;
66542;SDS011;53395;37.360;-122.046;2023-07-13T06:16:18;6.75;;;2.15;;
66542;SDS011;53395;37.360;-122.046;2023-07-13T06:19:02;6.82;;;2.13;;
66542;SDS011;53395;37.360;-122.046;2023-07-13T06:21:47;6.15;;;2.10;;
66542;SDS011;53395;37.360;-122.046;2023-07-13T06:24:31;6.32;;;2.20;;
66542;SDS011;53395;37.360;-122.046;2023-07-13T06:27:16;5.93;;;1.88;;
66542;SDS011;53395;37.360;-122.046;2023-07-13T06:30:00;8.85;;;2.25;;
66542;SDS011;53395;37.360;-122.046;2023-07-13T06:32:45;5.15;;;1.92;;
66542;SDS011;53395;37.360;-122.046;2023-07-13T06:35:29;8.15;;;2.10;;
66542;SDS011;53395;37.360;-122.046;2023-07-13T06:38:14;5.80;;;1.88;;
66542;SDS011;53395;37.360;-122.046;2023-07-13T06:40:58;5.82;;;2.03;;
66542;SDS011;53395;37.360;-122.046;2023-07-13T06:43:43;6.68;;;1.80;;
66542;SDS011;53395;37.360;-122.046;2023-07-13T06:46:28;6.93;;;1.95;;
66542;SDS011;53395;37.360;-122.046;2023-07-13T06:51:56;4.88;;;1.92;;
66542;SDS011;53395;37.360;-122.046;2023-07-13T06:54:41;5.57;;;1.98;;
66542;SDS011;53395;37.360;-122.046;2023-07-13T06:57:25;5.45;;;1.92;;
66542;SDS011;53395;37.360;-122.046;2023-07-13T07:00:11;6.65;;;2.13;;
66542;SDS011;53395;37.360;-122.046;2023-07-13T07:02:55;7.47;;;2.20;;
66542;SDS011;53395;37.360;-122.046;2023-07-13T07:05:40;9.10;;;2.63;;
66542;SDS011;53395;37.360;-122.046;2023-07-13T07:08:24;9.55;;;2.60;;
66542;SDS011;53395;37.360;-122.046;2023-07-13T07:11:11;5.00;;;1.92;;
66542;SDS011;53395;37.360;-122.046;2023-07-13T07:13:56;9.30;;;2.10;;
66542;SDS011;53395;37.360;-122.046;2023-07-13T07:16:41;7.15;;;2.28;;
66542;SDS011;53395;37.360;-122.046;2023-07-13T07:19:27;7.95;;;2.40;;
66542;SDS011;53395;37.360;-122.046;2023-07-13T07:22:12;5.05;;;1.83;;
66542;SDS011;53395;37.360;-122.046;2023-07-13T07:24:57;5.93;;;2.00;;
66542;SDS011;53395;37.360;-122.046;2023-07-13T07:27:41;8.45;;;2.03;;
66542;SDS011;53395;37.360;-122.046;2023-07-13T07:30:25;6.38;;;1.80;;
66542;SDS011;53395;37.360;-122.046;2023-07-13T07:33:10;6.72;;;2.13;;
66542;SDS011;53395;37.360;-122.046;2023-07-13T07:35:54;6.85;;;1.80;;
66542;SDS011;53395;37.360;-122.046;2023-07-13T07:38:39;7.47;;;2.35;;
66542;SDS011;53395;37.360;-122.046;2023-07-13T07:41:23;7.45;;;2.22;;
66542;SDS011;53395;37.360;-122.046;2023-07-13T07:44:08;10.18;;;2.33;;
66542;SDS011;53395;37.360;-122.046;2023-07-13T07:49:38;7.88;;;1.92;;
66542;SDS011;53395;37.360;-122.046;2023-07-13T07:52:22;8.82;;;2.40;;
66542;SDS011;53395;37.360;-122.046;2023-07-13T07:55:07;9.07;;;2.50;;
66542;SDS011;53395;37.360;-122.046;2023-07-13T07:57:52;4.93;;;1.88;;
66542;SDS011;53395;37.360;-122.046;2023-07-13T08:00:36;6.35;;;2.10;;
66542;SDS011;53395;37.360;-122.046;2023-07-13T08:03:20;6.55;;;2.10;;
66542;SDS011;53395;37.360;-122.046;2023-07-13T08:06:05;4.70;;;1.80;;
66542;SDS011;53395;37.360;-122.046;2023-07-13T08:08:49;10.05;;;2.22;;
66542;SDS011;53395;37.360;-122.046;2023-07-13T08:11:34;6.13;;;1.75;;
66542;SDS011;53395;37.360;-122.046;2023-07-13T08:14:18;6.57;;;1.83;;
66542;SDS011;53395;37.360;-122.046;2023-07-13T08:17:03;4.90;;;1.60;;
66542;SDS011;53395;37.360;-122.046;2023-07-13T08:19:47;5.93;;;1.88;;
66542;SDS011;53395;37.360;-122.046;2023-07-13T08:22:32;5.88;;;2.08;;
66542;SDS011;53395;37.360;-122.046;2023-07-13T08:25:16;7.93;;;2.42;;
66542;SDS011;53395;37.360;-122.046;2023-07-13T08:28:01;5.95;;;2.00;;
66542;SDS011;53395;37.360;-122.046;2023-07-13T08:30:47;6.85;;;1.88;;
66542;SDS011;53395;37.360;-122.046;2023-07-13T08:33:33;7.63;;;1.75;;
66542;SDS011;53395;37.360;-122.046;2023-07-13T08:36:18;6.38;;;1.80;;
66542;SDS011;53395;37.360;-122.046;2023-07-13T08:39:02;8.73;;;1.73;;
66542;SDS011;53395;37.360;-122.046;2023-07-13T08:41:47;6.90;;;1.77;;
66542;SDS011;53395;37.360;-122.046;2023-07-13T08:47:38;7.65;;;2.15;;
66542;SDS011;53395;37.360;-122.046;2023-07-13T08:50:25;8.07;;;2.33;;
66542;SDS011;53395;37.360;-122.046;2023-07-13T08:53:11;6.45;;;2.00;;
66542;SDS011;53395;37.360;-122.046;2023-07-13T08:55:57;6.53;;;1.77;;
66542;SDS011;53395;37.360;-122.046;2023-07-13T08:58:42;4.85;;;1.98;;
66542;SDS011;53395;37.360;-122.046;2023-07-13T09:04:32;5.03;;;1.90;;
66542;SDS011;53395;37.360;-122.046;2023-07-13T09:10:14;10.15;;;2.33;;
66542;SDS011;53395;37.360;-122.046;2023-07-13T09:15:44;6.95;;;2.10;;
66542;SDS011;53395;37.360;-122.046;2023-07-13T09:18:37;5.45;;;2.08;;
66542;SDS011;53395;37.360;-122.046;2023-07-13T09:21:36;4.10;;;1.77;;
66542;SDS011;53395;37.360;-122.046;2023-07-13T09:27:17;4.93;;;1.75;;
66542;SDS011;53395;37.360;-122.046;2023-07-13T09:32:57;6.25;;;2.00;;
66542;SDS011;53395;37.360;-122.046;2023-07-13T09:35:42;7.57;;;1.85;;
66542;SDS011;53395;37.360;-122.046;2023-07-13T09:38:27;6.00;;;2.20;;
66542;SDS011;53395;37.360;-122.046;2023-07-13T09:41:31;6.03;;;1.80;;
66542;SDS011;53395;37.360;-122.046;2023-07-13T09:44:18;4.47;;;1.70;;
66542;SDS011;53395;37.360;-122.046;2023-07-13T09:47:16;4.63;;;1.85;;
66542;SDS011;53395;37.360;-122.046;2023-07-13T09:50:02;5.43;;;1.70;;
66542;SDS011;53395;37.360;-122.046;2023-07-13T09:52:48;6.78;;;1.98;;
66542;SDS011;53395;37.360;-122.046;2023-07-13T09:58:22;6.70;;;1.85;;
66542;SDS011;53395;37.360;-122.046;2023-07-13T10:01:07;6.15;;;2.20;;
66542;SDS011;53395;37.360;-122.046;2023-07-13T10:03:53;7.93;;;1.85;;
66542;SDS011;53395;37.360;-122.046;2023-07-13T10:06:38;5.47;;;2.13;;
66542;SDS011;53395;37.360;-122.046;2023-07-13T10:09:24;5.55;;;1.90;;
66542;SDS011;53395;37.360;-122.046;2023-07-13T10:12:15;4.80;;;2.05;;
66542;SDS011;53395;37.360;-122.046;2023-07-13T10:15:00;5.63;;;1.70;;
66542;SDS011;53395;37.360;-122.046;2023-07-13T10:20:29;5.68;;;2.00;;
66542;SDS011;53395;37.360;-122.046;2023-07-13T10:23:15;4.88;;;1.83;;
66542;SDS011;53395;37.360;-122.046;2023-07-13T10:26:08;5.15;;;1.88;;
66542;SDS011;53395;37.360;-122.046;2023-07-13T10:28:56;6.05;;;2.13;;
66542;SDS011;53395;37.360;-122.046;2023-07-13T10:31:41;6.05;;;2.10;;
66542;SDS011;53395;37.360;-122.046;2023-07-13T10:34:28;3.47;;;1.75;;
66542;SDS011;53395;37.360;-122.046;2023-07-13T10:37:20;6.50;;;2.30;;
66542;SDS011;53395;37.360;-122.046;2023-07-13T10:40:06;4.53;;;1.95;;
66542;SDS011;53395;37.360;-122.046;2023-07-13T10:42:57;7.38;;;2.30;;
66542;SDS011;53395;37.360;-122.046;2023-07-13T10:48:26;7.63;;;2.15;;
66542;SDS011;53395;37.360;-122.046;2023-07-13T10:51:13;5.82;;;1.88;;
66542;SDS011;53395;37.360;-122.046;2023-07-13T10:54:12;6.57;;;2.00;;
66542;SDS011;53395;37.360;-122.046;2023-07-13T11:00:14;6.07;;;2.00;;
66542;SDS011;53395;37.360;-122.046;2023-07-13T11:02:57;7.18;;;2.25;;
66542;SDS011;53395;37.360;-122.046;2023-07-13T11:05:47;7.38;;;1.95;;
66542;SDS011;53395;37.360;-122.046;2023-07-13T11:08:32;9.30;;;2.13;;
66542;SDS011;53395;37.360;-122.046;2023-07-13T11:14:30;8.68;;;2.05;;
66542;SDS011;53395;37.360;-122.046;2023-07-13T11:25:51;5.65;;;2.20;;
66542;SDS011;53395;37.360;-122.046;2023-07-13T11:28:35;7.22;;;2.80;;
66542;SDS011;53395;37.360;-122.046;2023-07-13T11:34:07;5.45;;;1.70;;
66542;SDS011;53395;37.360;-122.046;2023-07-13T11:36:57;5.75;;;2.20;;
66542;SDS011;53395;37.360;-122.046;2023-07-13T11:39:43;4.90;;;1.77;;
66542;SDS011;53395;37.360;-122.046;2023-07-13T11:42:28;5.18;;;1.73;;
66542;SDS011;53395;37.360;-122.046;2023-07-13T11:45:21;8.15;;;2.28;;
66542;SDS011;53395;37.360;-122.046;2023-07-13T11:48:29;7.78;;;2.20;;
66542;SDS011;53395;37.360;-122.046;2023-07-13T11:51:14;5.88;;;1.85;;
66542;SDS011;53395;37.360;-122.046;2023-07-13T11:54:05;8.02;;;1.90;;
66542;SDS011;53395;37.360;-122.046;2023-07-13T11:56:50;5.75;;;2.20;;
66542;SDS011;53395;37.360;-122.046;2023-07-13T11:59:37;6.95;;;2.33;;
66542;SDS011;53395;37.360;-122.046;2023-07-13T12:02:34;7.30;;;2.33;;
66542;SDS011;53395;37.360;-122.046;2023-07-13T12:05:20;4.80;;;1.70;;
66542;SDS011;53395;37.360;-122.046;2023-07-13T12:08:10;6.45;;;1.92;;
66542;SDS011;53395;37.360;-122.046;2023-07-13T12:11:15;5.82;;;2.03;;
66542;SDS011;53395;37.360;-122.046;2023-07-13T12:14:00;6.75;;;2.03;;
66542;SDS011;53395;37.360;-122.046;2023-07-13T12:16:45;8.48;;;2.20;;
66542;SDS011;53395;37.360;-122.046;2023-07-13T12:19:30;7.88;;;1.80;;
66542;SDS011;53395;37.360;-122.046;2023-07-13T12:22:16;6.32;;;1.83;;
66542;SDS011;53395;37.360;-122.046;2023-07-13T12:25:00;5.68;;;2.05;;
66542;SDS011;53395;37.360;-122.046;2023-07-13T12:27:48;6.70;;;1.88;;
66542;SDS011;53395;37.360;-122.046;2023-07-13T12:30:36;7.22;;;1.80;;
66542;SDS011;53395;37.360;-122.046;2023-07-13T12:33:21;6.82;;;2.25;;
66542;SDS011;53395;37.360;-122.046;2023-07-13T12:36:09;7.97;;;1.92;;
66542;SDS011;53395;37.360;-122.046;2023-07-13T12:38:57;5.25;;;1.75;;
66542;SDS011;53395;37.360;-122.046;2023-07-13T12:41:42;7.35;;;2.15;;
66542;SDS011;53395;37.360;-122.046;2023-07-13T12:44:29;7.10;;;1.85;;
66542;SDS011;53395;37.360;-122.046;2023-07-13T12:47:15;7.85;;;2.00;;
66542;SDS011;53395;37.360;-122.046;2023-07-13T12:49:59;7.78;;;2.20;;
66542;SDS011;53395;37.360;-122.046;2023-07-13T12:52:53;6.32;;;1.90;;
66542;SDS011;53395;37.360;-122.046;2023-07-13T12:55:42;4.22;;;1.80;;
66542;SDS011;53395;37.360;-122.046;2023-07-13T13:01:12;5.22;;;1.85;;
66542;SDS011;53395;37.360;-122.046;2023-07-13T13:04:00;5.25;;;1.75;;
66542;SDS011;53395;37.360;-122.046;2023-07-13T13:06:45;7.45;;;1.83;;
66542;SDS011;53395;37.360;-122.046;2023-07-13T13:09:30;4.47;;;1.80;;
66542;SDS011;53395;37.360;-122.046;2023-07-13T13:12:14;4.00;;;1.70;;
66542;SDS011;53395;37.360;-122.046;2023-07-13T13:15:00;10.13;;;2.05;;
66542;SDS011;53395;37.360;-122.046;2023-07-13T13:17:45;8.65;;;2.03;;
66542;SDS011;53395;37.360;-122.046;2023-07-13T13:20:29;6.85;;;2.15;;
66542;SDS011;53395;37.360;-122.046;2023-07-13T13:23:18;6.65;;;2.50;;
66542;SDS011;53395;37.360;-122.046;2023-07-13T13:26:05;9.43;;;2.47;;
66542;SDS011;53395;37.360;-122.046;2023-07-13T13:28:52;5.88;;;2.10;;
66542;SDS011;53395;37.360;-122.046;2023-07-13T13:31:37;8.10;;;1.85;;
66542;SDS011;53395;37.360;-122.046;2023-07-13T13:34:22;7.85;;;1.92;;
66542;SDS011;53395;37.360;-122.046;2023-07-13T13:37:28;5.80;;;2.20;;
66542;SDS011;53395;37.360;-122.046;2023-07-13T13:40:16;9.45;;;2.17;;
66542;SDS011;53395;37.360;-122.046;2023-07-13T13:43:01;6.80;;;2.67;;
66542;SDS011;53395;37.360;-122.046;2023-07-13T13:45:45;5.82;;;2.00;;
66542;SDS011;53395;37.360;-122.046;2023-07-13T13:48:33;7.88;;;2.35;;
66542;SDS011;53395;37.360;-122.046;2023-07-13T13:51:19;5.35;;;2.10;;
66542;SDS011;53395;37.360;-122.046;2023-07-13T13:54:04;6.70;;;1.85;;
66542;SDS011;53395;37.360;-122.046;2023-07-13T13:59:33;7.07;;;2.03;;
66542;SDS011;53395;37.360;-122.046;2023-07-13T14:02:27;10.90;;;2.65;;
66542;SDS011;53395;37.360;-122.046;2023-07-13T14:05:13;9.45;;;2.67;;
66542;SDS011;53395;37.360;-122.046;2023-07-13T14:10:47;8.52;;;2.67;;
66542;SDS011;53395;37.360;-122.046;2023-07-13T14:13:33;7.35;;;2.30;;
66542;SDS011;53395;37.360;-122.046;2023-07-13T14:16:21;13.80;;;2.90;;
66542;SDS011;53395;37.360;-122.046;2023-07-13T14:19:06;7.53;;;2.30;;
66542;SDS011;53395;37.360;-122.046;2023-07-13T14:21:52;11.90;;;2.55;;
66542;SDS011;53395;37.360;-122.046;2023-07-13T14:24:37;13.48;;;2.63;;
66542;SDS011;53395;37.360;-122.046;2023-07-13T14:27:22;10.77;;;2.33;;
66542;SDS011;53395;37.360;-122.046;2023-07-13T14:32:53;10.23;;;2.60;;
66542;SDS011;53395;37.360;-122.046;2023-07-13T14:35:38;13.40;;;3.15;;
66542;SDS011;53395;37.360;-122.046;2023-07-13T14:38:23;9.45;;;2.92;;
66542;SDS011;53395;37.360;-122.046;2023-07-13T14:41:07;13.57;;;3.10;;
66542;SDS011;53395;37.360;-122.046;2023-07-13T14:43:52;11.13;;;2.80;;
66542;SDS011;53395;37.360;-122.046;2023-07-13T14:46:36;9.45;;;2.83;;
66542;SDS011;53395;37.360;-122.046;2023-07-13T14:52:24;9.43;;;2.70;;
66542;SDS011;53395;37.360;-122.046;2023-07-13T14:55:14;8.68;;;2.70;;
66542;SDS011;53395;37.360;-122.046;2023-07-13T14:57:59;11.27;;;3.00;;
66542;SDS011;53395;37.360;-122.046;2023-07-13T15:00:44;9.52;;;3.30;;
66542;SDS011;53395;37.360;-122.046;2023-07-13T15:03:28;16.23;;;3.63;;
66542;SDS011;53395;37.360;-122.046;2023-07-13T15:06:13;10.20;;;2.92;;
66542;SDS011;53395;37.360;-122.046;2023-07-13T15:08:57;10.98;;;2.88;;
66542;SDS011;53395;37.360;-122.046;2023-07-13T15:11:42;12.52;;;2.88;;
66542;SDS011;53395;37.360;-122.046;2023-07-13T15:14:26;9.95;;;3.13;;
66542;SDS011;53395;37.360;-122.046;2023-07-13T15:17:33;10.18;;;3.42;;
66542;SDS011;53395;37.360;-122.046;2023-07-13T15:20:29;12.90;;;3.20;;
66542;SDS011;53395;37.360;-122.046;2023-07-13T15:23:14;11.70;;;3.35;;
66542;SDS011;53395;37.360;-122.046;2023-07-13T15:25:59;10.23;;;3.00;;
66542;SDS011;53395;37.360;-122.046;2023-07-13T15:28:44;9.77;;;3.55;;
66542;SDS011;53395;37.360;-122.046;2023-07-13T15:31:28;11.85;;;3.58;;
66542;SDS011;53395;37.360;-122.046;2023-07-13T15:34:15;8.07;;;3.05;;
66542;SDS011;53395;37.360;-122.046;2023-07-13T15:37:01;6.70;;;2.80;;
66542;SDS011;53395;37.360;-122.046;2023-07-13T15:39:45;10.43;;;3.13;;
66542;SDS011;53395;37.360;-122.046;2023-07-13T15:42:30;9.65;;;2.97;;
66542;SDS011;53395;37.360;-122.046;2023-07-13T15:48:00;8.73;;;2.67;;
66542;SDS011;53395;37.360;-122.046;2023-07-13T15:50:45;9.88;;;3.15;;
66542;SDS011;53395;37.360;-122.046;2023-07-13T15:53:32;11.85;;;3.00;;
66542;SDS011;53395;37.360;-122.046;2023-07-13T15:56:24;10.80;;;3.08;;
66542;SDS011;53395;37.360;-122.046;2023-07-13T15:59:10;8.10;;;2.60;;
66542;SDS011;53395;37.360;-122.046;2023-07-13T16:01:58;11.38;;;3.03;;
66542;SDS011;53395;37.360;-122.046;2023-07-13T16:04:42;8.43;;;2.80;;
66542;SDS011;53395;37.360;-122.046;2023-07-13T16:07:27;9.70;;;3.47;;
66542;SDS011;53395;37.360;-122.046;2023-07-13T16:10:19;8.95;;;3.10;;
66542;SDS011;53395;37.360;-122.046;2023-07-13T16:13:04;12.32;;;3.63;;
66542;SDS011;53395;37.360;-122.046;2023-07-13T16:15:52;8.23;;;3.20;;
66542;SDS011;53395;37.360;-122.046;2023-07-13T16:18:39;10.82;;;3.45;;
66542;SDS011;53395;37.360;-122.046;2023-07-13T16:21:25;7.38;;;3.05;;
66542;SDS011;53395;37.360;-122.046;2023-07-13T16:24:14;9.32;;;3.10;;
66542;SDS011;53395;37.360;-122.046;2023-07-13T16:27:00;9.95;;;3.35;;
66542;SDS011;53395;37.360;-122.046;2023-07-13T16:29:47;10.35;;;3.20;;
66542;SDS011;53395;37.360;-122.046;2023-07-13T16:32:32;9.45;;;3.53;;
66542;SDS011;53395;37.360;-122.046;2023-07-13T16:35:18;10.23;;;3.55;;
66542;SDS011;53395;37.360;-122.046;2023-07-13T16:38:03;10.88;;;3.60;;
66542;SDS011;53395;37.360;-122.046;2023-07-13T16:40:48;11.57;;;3.28;;
66542;SDS011;53395;37.360;-122.046;2023-07-13T16:43:33;13.60;;;3.88;;
66542;SDS011;53395;37.360;-122.046;2023-07-13T16:46:20;10.93;;;3.15;;
66542;SDS011;53395;37.360;-122.046;2023-07-13T16:49:22;12.38;;;3.30;;
66542;SDS011;53395;37.360;-122.046;2023-07-13T16:52:09;10.40;;;3.28;;
66542;SDS011;53395;37.360;-122.046;2023-07-13T16:54:55;9.98;;;3.08;;
66542;SDS011;53395;37.360;-122.046;2023-07-13T16:57:39;11.07;;;3.58;;
66542;SDS011;53395;37.360;-122.046;2023-07-13T17:00:28;12.40;;;3.33;;
66542;SDS011;53395;37.360;-122.046;2023-07-13T17:03:13;9.13;;;3.08;;
66542;SDS011;53395;37.360;-122.046;2023-07-13T17:05:58;10.40;;;2.92;;
66542;SDS011;53395;37.360;-122.046;2023-07-13T17:08:45;13.63;;;3.72;;
66542;SDS011;53395;37.360;-122.046;2023-07-13T17:11:29;9.68;;;2.90;;
66542;SDS011;53395;37.360;-122.046;2023-07-13T17:14:17;13.45;;;3.30;;
66542;SDS011;53395;37.360;-122.046;2023-07-13T17:20:27;8.80;;;2.53;;
66542;SDS011;53395;37.360;-122.046;2023-07-13T17:23:13;8.07;;;2.25;;
66542;SDS011;53395;37.360;-122.046;2023-07-13T17:26:01;9.15;;;3.05;;